sensor_id;sensor_type;location;lat;lon;timestamp;pressure;altitude;pressure_sealevel;temperature;humidity
12594;BME280;6362;50.208;9.182;2023-04-08T00:00:31;100236.06;;;3.01;91.70
12594;BME280;6362;50.208;9.182;2023-04-08T00:02:57;100244.50;;;2.97;91.57
12594;BME280;6362;50.208;9.182;2023-04-08T00:05:22;100238.41;;;2.94;91.85
12594;BME280;6362;50.208;9.182;2023-04-08T00:07:48;100242.59;;;2.90;91.94
12594;BME280;6362;50.208;9.182;2023-04-08T00:10:13;100233.16;;;2.89;91.86
12594;BME280;6362;50.208;9.182;2023-04-08T00:12:39;100234.66;;;2.82;91.75
12594;BME280;6362;50.208;9.182;2023-04-08T00:15:04;100240.56;;;2.78;91.60
12594;BME280;6362;50.208;9.182;2023-04-08T00:17:30;100244.84;;;2.79;91.39
12594;BME280;6362;50.208;9.182;2023-04-08T00:19:55;100244.81;;;2.78;91.94
12594;BME280;6362;50.208;9.182;2023-04-08T00:22:21;100248.16;;;2.75;91.88
12594;BME280;6362;50.208;9.182;2023-04-08T00:24:46;100245.53;;;2.72;91.77
12594;BME280;6362;50.208;9.182;2023-04-08T00:27:12;100240.38;;;2.72;92.00
12594;BME280;6362;50.208;9.182;2023-04-08T00:29:37;100243.88;;;2.76;92.09
12594;BME280;6362;50.208;9.182;2023-04-08T00:32:03;100245.69;;;2.78;92.26
12594;BME280;6362;50.208;9.182;2023-04-08T00:34:28;100244.91;;;2.81;92.34
12594;BME280;6362;50.208;9.182;2023-04-08T00:36:54;100247.44;;;2.79;92.40
12594;BME280;6362;50.208;9.182;2023-04-08T00:39:20;100250.75;;;2.77;92.34
12594;BME280;6362;50.208;9.182;2023-04-08T00:41:45;100241.31;;;2.76;92.27
12594;BME280;6362;50.208;9.182;2023-04-08T00:44:11;100237.75;;;2.71;92.17
12594;BME280;6362;50.208;9.182;2023-04-08T00:46:38;100236.84;;;2.69;91.85
12594;BME280;6362;50.208;9.182;2023-04-08T00:49:05;100247.88;;;2.66;92.59
12594;BME280;6362;50.208;9.182;2023-04-08T00:51:32;100246.25;;;2.68;92.14
12594;BME280;6362;50.208;9.182;2023-04-08T00:53:57;100247.16;;;2.70;91.47
12594;BME280;6362;50.208;9.182;2023-04-08T00:56:25;100246.00;;;2.60;92.18
12594;BME280;6362;50.208;9.182;2023-04-08T00:58:51;100250.09;;;2.54;92.25
12594;BME280;6362;50.208;9.182;2023-04-08T01:08:59;100253.13;;;2.41;91.88
12594;BME280;6362;50.208;9.182;2023-04-08T01:11:26;100258.22;;;2.39;92.44
12594;BME280;6362;50.208;9.182;2023-04-08T01:13:55;100250.53;;;2.39;92.15
12594;BME280;6362;50.208;9.182;2023-04-08T01:16:23;100247.97;;;2.39;92.10
12594;BME280;6362;50.208;9.182;2023-04-08T01:18:50;100247.84;;;2.36;92.30
12594;BME280;6362;50.208;9.182;2023-04-08T01:21:17;100252.94;;;2.34;92.52
12594;BME280;6362;50.208;9.182;2023-04-08T01:23:58;100246.94;;;2.34;92.50
12594;BME280;6362;50.208;9.182;2023-04-08T01:26:26;100252.81;;;2.30;92.11
12594;BME280;6362;50.208;9.182;2023-04-08T01:28:54;100256.22;;;2.30;92.14
12594;BME280;6362;50.208;9.182;2023-04-08T01:31:21;100255.31;;;2.28;92.72
12594;BME280;6362;50.208;9.182;2023-04-08T01:33:48;100261.22;;;2.26;92.54
12594;BME280;6362;50.208;9.182;2023-04-08T01:36:15;100259.63;;;2.29;92.52
12594;BME280;6362;50.208;9.182;2023-04-08T01:38:41;100257.72;;;2.22;92.28
12594;BME280;6362;50.208;9.182;2023-04-08T01:41:10;100254.25;;;2.22;92.10
12594;BME280;6362;50.208;9.182;2023-04-08T01:43:38;100248.19;;;2.20;92.34
12594;BME280;6362;50.208;9.182;2023-04-08T01:46:05;100252.47;;;2.19;92.38
12594;BME280;6362;50.208;9.182;2023-04-08T01:48:33;100246.47;;;2.19;92.28
12594;BME280;6362;50.208;9.182;2023-04-08T01:51:00;100253.38;;;2.21;92.37
12594;BME280;6362;50.208;9.182;2023-04-08T01:53:26;100255.94;;;2.21;92.62
12594;BME280;6362;50.208;9.182;2023-04-08T01:55:56;100255.00;;;2.18;92.37
12594;BME280;6362;50.208;9.182;2023-04-08T01:58:23;100257.50;;;2.16;92.52
12594;BME280;6362;50.208;9.182;2023-04-08T02:00:53;100252.34;;;2.16;92.50
12594;BME280;6362;50.208;9.182;2023-04-08T02:03:21;100248.91;;;2.16;92.19
12594;BME280;6362;50.208;9.182;2023-04-08T02:05:48;100252.28;;;2.13;92.51
12594;BME280;6362;50.208;9.182;2023-04-08T02:08:13;100255.59;;;2.10;92.54
12594;BME280;6362;50.208;9.182;2023-04-08T02:10:39;100262.44;;;2.10;92.82
12594;BME280;6362;50.208;9.182;2023-04-08T02:13:05;100269.31;;;2.11;92.51
12594;BME280;6362;50.208;9.182;2023-04-08T02:15:37;100266.66;;;2.08;92.78
12594;BME280;6362;50.208;9.182;2023-04-08T02:18:15;100265.00;;;2.10;92.77
12594;BME280;6362;50.208;9.182;2023-04-08T02:20:53;100275.06;;;2.04;92.69
12594;BME280;6362;50.208;9.182;2023-04-08T02:23:24;100271.53;;;2.00;92.53
12594;BME280;6362;50.208;9.182;2023-04-08T02:25:54;100268.91;;;1.99;92.72
12594;BME280;6362;50.208;9.182;2023-04-08T02:28:21;100274.88;;;1.98;92.92
12594;BME280;6362;50.208;9.182;2023-04-08T02:30:49;100271.28;;;1.93;92.74
12594;BME280;6362;50.208;9.182;2023-04-08T02:33:18;100276.38;;;1.91;92.78
12594;BME280;6362;50.208;9.182;2023-04-08T02:35:47;100278.94;;;1.91;92.72
12594;BME280;6362;50.208;9.182;2023-04-08T02:38:13;100275.53;;;1.92;92.73
12594;BME280;6362;50.208;9.182;2023-04-08T02:40:40;100278.78;;;1.87;92.72
12594;BME280;6362;50.208;9.182;2023-04-08T02:43:05;100277.88;;;1.84;93.01
12594;BME280;6362;50.208;9.182;2023-04-08T02:45:37;100275.91;;;1.77;92.72
12594;BME280;6362;50.208;9.182;2023-04-08T02:48:05;100275.84;;;1.76;92.85
12594;BME280;6362;50.208;9.182;2023-04-08T02:50:30;100272.34;;;1.72;92.40
12594;BME280;6362;50.208;9.182;2023-04-08T02:52:56;100284.94;;;1.66;92.38
12594;BME280;6362;50.208;9.182;2023-04-08T02:55:21;100277.19;;;1.65;92.40
12594;BME280;6362;50.208;9.182;2023-04-08T02:57:47;100281.38;;;1.61;92.35
12594;BME280;6362;50.208;9.182;2023-04-08T03:00:13;100275.44;;;1.64;92.72
12594;BME280;6362;50.208;9.182;2023-04-08T03:02:39;100276.16;;;1.59;92.49
12594;BME280;6362;50.208;9.182;2023-04-08T03:05:05;100288.97;;;1.59;92.27
12594;BME280;6362;50.208;9.182;2023-04-08T03:07:31;100290.47;;;1.53;92.57
12594;BME280;6362;50.208;9.182;2023-04-08T03:09:57;100287.28;;;1.60;92.23
12594;BME280;6362;50.208;9.182;2023-04-08T03:12:22;100286.25;;;1.55;92.04
12594;BME280;6362;50.208;9.182;2023-04-08T03:14:49;100283.56;;;1.50;92.47
12594;BME280;6362;50.208;9.182;2023-04-08T03:17:15;100287.28;;;1.60;92.44
12594;BME280;6362;50.208;9.182;2023-04-08T03:19:40;100284.00;;;1.64;91.95
12594;BME280;6362;50.208;9.182;2023-04-08T03:22:06;100282.47;;;1.69;92.09
12594;BME280;6362;50.208;9.182;2023-04-08T03:24:33;100284.13;;;1.67;91.87
12594;BME280;6362;50.208;9.182;2023-04-08T03:26:59;100285.75;;;1.65;92.23
12594;BME280;6362;50.208;9.182;2023-04-08T03:29:25;100290.84;;;1.64;92.53
12594;BME280;6362;50.208;9.182;2023-04-08T03:31:51;100293.34;;;1.62;92.33
12594;BME280;6362;50.208;9.182;2023-04-08T03:34:16;100288.06;;;1.57;92.21
12594;BME280;6362;50.208;9.182;2023-04-08T03:36:42;100293.34;;;1.62;91.85
12594;BME280;6362;50.208;9.182;2023-04-08T03:39:07;100288.16;;;1.61;91.77
12594;BME280;6362;50.208;9.182;2023-04-08T03:41:33;100295.03;;;1.62;92.07
12594;BME280;6362;50.208;9.182;2023-04-08T03:43:58;100294.00;;;1.56;91.76
12594;BME280;6362;50.208;9.182;2023-04-08T03:46:23;100293.84;;;1.52;92.09
12594;BME280;6362;50.208;9.182;2023-04-08T03:48:49;100300.66;;;1.51;91.78
12594;BME280;6362;50.208;9.182;2023-04-08T03:51:14;100298.03;;;1.50;91.85
12594;BME280;6362;50.208;9.182;2023-04-08T03:53:40;100288.53;;;1.46;91.78
12594;BME280;6362;50.208;9.182;2023-04-08T03:56:06;100296.22;;;1.46;91.66
12594;BME280;6362;50.208;9.182;2023-04-08T03:58:31;100305.88;;;1.54;92.27
12594;BME280;6362;50.208;9.182;2023-04-08T04:00:57;100294.72;;;1.52;91.34
12594;BME280;6362;50.208;9.182;2023-04-08T04:03:22;100294.56;;;1.48;91.33
12594;BME280;6362;50.208;9.182;2023-04-08T04:05:47;100290.97;;;1.43;91.50
12594;BME280;6362;50.208;9.182;2023-04-08T04:08:13;100301.25;;;1.44;91.70
12594;BME280;6362;50.208;9.182;2023-04-08T04:10:38;100301.13;;;1.40;91.36
12594;BME280;6362;50.208;9.182;2023-04-08T04:13:04;100289.19;;;1.40;91.42
12594;BME280;6362;50.208;9.182;2023-04-08T04:15:30;100297.63;;;1.38;91.97
12594;BME280;6362;50.208;9.182;2023-04-08T04:17:55;100306.94;;;1.36;91.97
12594;BME280;6362;50.208;9.182;2023-04-08T04:20:21;100308.59;;;1.34;91.57
12594;BME280;6362;50.208;9.182;2023-04-08T04:22:46;100321.41;;;1.34;91.98
12594;BME280;6362;50.208;9.182;2023-04-08T04:25:12;100314.47;;;1.31;91.67
12594;BME280;6362;50.208;9.182;2023-04-08T04:27:37;100307.56;;;1.28;92.23
12594;BME280;6362;50.208;9.182;2023-04-08T04:30:03;100309.34;;;1.31;91.90
12594;BME280;6362;50.208;9.182;2023-04-08T04:32:29;100317.06;;;1.32;91.84
12594;BME280;6362;50.208;9.182;2023-04-08T04:34:54;100315.53;;;1.38;92.15
12594;BME280;6362;50.208;9.182;2023-04-08T04:37:19;100317.41;;;1.42;92.15
12594;BME280;6362;50.208;9.182;2023-04-08T04:39:45;100319.28;;;1.46;92.46
12594;BME280;6362;50.208;9.182;2023-04-08T04:42:11;100318.63;;;1.51;92.04
12594;BME280;6362;50.208;9.182;2023-04-08T04:44:37;100313.13;;;1.66;91.26
12594;BME280;6362;50.208;9.182;2023-04-08T04:47:02;100317.97;;;1.57;91.73
12594;BME280;6362;50.208;9.182;2023-04-08T04:49:28;100321.34;;;1.56;91.51
12594;BME280;6362;50.208;9.182;2023-04-08T04:51:53;100318.81;;;1.57;91.97
12594;BME280;6362;50.208;9.182;2023-04-08T04:54:19;100323.94;;;1.57;91.78
12594;BME280;6362;50.208;9.182;2023-04-08T04:56:44;100320.56;;;1.58;91.72
12594;BME280;6362;50.208;9.182;2023-04-08T04:59:10;100324.94;;;1.61;92.20
12594;BME280;6362;50.208;9.182;2023-04-08T05:01:35;100328.13;;;1.79;91.33
12594;BME280;6362;50.208;9.182;2023-04-08T05:04:01;100324.78;;;1.82;90.67
12594;BME280;6362;50.208;9.182;2023-04-08T05:06:26;100328.31;;;1.85;90.61
12594;BME280;6362;50.208;9.182;2023-04-08T05:08:52;100333.41;;;1.84;90.40
12594;BME280;6362;50.208;9.182;2023-04-08T05:11:17;100319.66;;;1.82;90.54
12594;BME280;6362;50.208;9.182;2023-04-08T05:13:43;100324.38;;;1.95;89.99
12594;BME280;6362;50.208;9.182;2023-04-08T05:16:09;100333.66;;;1.92;90.11
12594;BME280;6362;50.208;9.182;2023-04-08T05:18:35;100333.66;;;1.92;90.01
12594;BME280;6362;50.208;9.182;2023-04-08T05:21:01;100334.31;;;1.86;90.32
12594;BME280;6362;50.208;9.182;2023-04-08T05:23:26;100335.09;;;1.83;90.98
12594;BME280;6362;50.208;9.182;2023-04-08T05:25:51;100337.69;;;1.83;90.79
12594;BME280;6362;50.208;9.182;2023-04-08T05:28:17;100344.69;;;1.89;91.70
12594;BME280;6362;50.208;9.182;2023-04-08T05:30:48;100344.25;;;2.01;90.79
12594;BME280;6362;50.208;9.182;2023-04-08T05:33:13;100341.41;;;2.19;89.99
12594;BME280;6362;50.208;9.182;2023-04-08T05:35:39;100343.19;;;2.21;89.67
12594;BME280;6362;50.208;9.182;2023-04-08T05:38:04;100337.19;;;2.21;89.73
12594;BME280;6362;50.208;9.182;2023-04-08T05:40:30;100343.25;;;2.23;89.52
12594;BME280;6362;50.208;9.182;2023-04-08T05:42:56;100347.78;;;2.31;89.22
12594;BME280;6362;50.208;9.182;2023-04-08T05:45:21;100346.88;;;2.29;89.21
12594;BME280;6362;50.208;9.182;2023-04-08T05:47:46;100344.34;;;2.31;89.95
12594;BME280;6362;50.208;9.182;2023-04-08T05:50:12;100347.97;;;2.37;89.80
12594;BME280;6362;50.208;9.182;2023-04-08T05:52:44;100353.94;;;2.36;90.13
12594;BME280;6362;50.208;9.182;2023-04-08T05:55:10;100354.97;;;2.42;90.18
12594;BME280;6362;50.208;9.182;2023-04-08T05:57:36;100360.34;;;2.49;90.09
12594;BME280;6362;50.208;9.182;2023-04-08T06:00:06;100363.53;;;2.69;89.40
12594;BME280;6362;50.208;9.182;2023-04-08T06:02:32;100375.72;;;2.76;88.02
12594;BME280;6362;50.208;9.182;2023-04-08T06:04:58;100367.94;;;2.73;88.33
12594;BME280;6362;50.208;9.182;2023-04-08T06:07:24;100383.25;;;2.70;88.31
12594;BME280;6362;50.208;9.182;2023-04-08T06:09:49;100385.19;;;2.77;88.86
12594;BME280;6362;50.208;9.182;2023-04-08T06:12:14;100381.06;;;2.82;89.09
12594;BME280;6362;50.208;9.182;2023-04-08T06:14:40;100384.28;;;3.04;87.97
12594;BME280;6362;50.208;9.182;2023-04-08T06:17:05;100379.97;;;3.03;87.75
12594;BME280;6362;50.208;9.182;2023-04-08T06:19:31;100380.06;;;3.06;88.27
12594;BME280;6362;50.208;9.182;2023-04-08T06:21:56;100379.50;;;3.16;88.01
12594;BME280;6362;50.208;9.182;2023-04-08T06:24:26;100381.66;;;3.31;88.71
12594;BME280;6362;50.208;9.182;2023-04-08T06:26:54;100384.53;;;3.41;87.65
12594;BME280;6362;50.208;9.182;2023-04-08T06:29:20;100388.25;;;3.51;87.00
12594;BME280;6362;50.208;9.182;2023-04-08T06:31:46;100384.91;;;3.55;87.09
12594;BME280;6362;50.208;9.182;2023-04-08T06:34:11;100390.41;;;3.67;87.17
12594;BME280;6362;50.208;9.182;2023-04-08T06:36:37;100397.63;;;3.81;87.19
12594;BME280;6362;50.208;9.182;2023-04-08T06:39:03;100394.47;;;3.91;87.28
12594;BME280;6362;50.208;9.182;2023-04-08T06:41:29;100393.09;;;4.04;86.79
12594;BME280;6362;50.208;9.182;2023-04-08T06:43:55;100402.91;;;4.18;85.45
12594;BME280;6362;50.208;9.182;2023-04-08T06:46:20;100403.97;;;4.27;85.04
12594;BME280;6362;50.208;9.182;2023-04-08T06:48:45;100398.78;;;4.25;84.60
12594;BME280;6362;50.208;9.182;2023-04-08T06:51:11;100403.03;;;4.23;85.55
12594;BME280;6362;50.208;9.182;2023-04-08T06:53:36;100404.78;;;4.24;85.48
12594;BME280;6362;50.208;9.182;2023-04-08T06:56:02;100402.22;;;4.26;86.17
12594;BME280;6362;50.208;9.182;2023-04-08T06:58:27;100401.47;;;4.28;85.96
12594;BME280;6362;50.208;9.182;2023-04-08T07:00:54;100415.38;;;4.36;86.20
12594;BME280;6362;50.208;9.182;2023-04-08T07:03:22;100406.97;;;4.43;85.47
12594;BME280;6362;50.208;9.182;2023-04-08T07:05:48;100401.16;;;4.50;84.09
12594;BME280;6362;50.208;9.182;2023-04-08T07:08:13;100409.31;;;4.69;83.04
12594;BME280;6362;50.208;9.182;2023-04-08T07:10:39;100402.72;;;4.80;81.70
12594;BME280;6362;50.208;9.182;2023-04-08T07:13:04;100406.19;;;4.82;82.55
12594;BME280;6362;50.208;9.182;2023-04-08T07:15:30;100410.28;;;4.74;82.23
12594;BME280;6362;50.208;9.182;2023-04-08T07:17:55;100415.34;;;4.69;82.72
12594;BME280;6362;50.208;9.182;2023-04-08T07:20:22;100416.19;;;4.70;83.83
12594;BME280;6362;50.208;9.182;2023-04-08T07:22:48;100415.34;;;4.69;83.48
12594;BME280;6362;50.208;9.182;2023-04-08T07:25:13;100417.88;;;4.68;83.28
12594;BME280;6362;50.208;9.182;2023-04-08T07:27:39;100419.75;;;4.75;83.49
12594;BME280;6362;50.208;9.182;2023-04-08T07:30:05;100424.91;;;4.75;83.23
12594;BME280;6362;50.208;9.182;2023-04-08T07:32:32;100432.66;;;4.75;82.64
12594;BME280;6362;50.208;9.182;2023-04-08T07:34:58;100433.72;;;4.83;82.52
12594;BME280;6362;50.208;9.182;2023-04-08T07:37:23;100431.44;;;4.97;80.40
12594;BME280;6362;50.208;9.182;2023-04-08T07:39:49;100434.97;;;5.00;81.48
12594;BME280;6362;50.208;9.182;2023-04-08T07:42:15;100435.88;;;5.02;81.71
12594;BME280;6362;50.208;9.182;2023-04-08T07:44:40;100441.00;;;5.01;80.95
12594;BME280;6362;50.208;9.182;2023-04-08T07:47:06;100452.91;;;4.96;80.73
12594;BME280;6362;50.208;9.182;2023-04-08T07:49:31;100446.09;;;4.99;81.28
12594;BME280;6362;50.208;9.182;2023-04-08T07:51:56;100452.16;;;5.01;80.98
12594;BME280;6362;50.208;9.182;2023-04-08T07:54:22;100460.78;;;5.02;80.94
12594;BME280;6362;50.208;9.182;2023-04-08T07:56:48;100455.66;;;5.05;80.99
12594;BME280;6362;50.208;9.182;2023-04-08T07:59:13;100459.91;;;5.01;80.54
12594;BME280;6362;50.208;9.182;2023-04-08T08:01:38;100456.56;;;5.06;80.64
12594;BME280;6362;50.208;9.182;2023-04-08T08:04:04;100460.19;;;5.14;80.60
12594;BME280;6362;50.208;9.182;2023-04-08T08:06:30;100463.81;;;5.22;79.68
12594;BME280;6362;50.208;9.182;2023-04-08T08:08:58;100472.72;;;5.36;80.46
12594;BME280;6362;50.208;9.182;2023-04-08T08:11:24;100468.50;;;5.40;79.34
12594;BME280;6362;50.208;9.182;2023-04-08T08:13:51;100459.41;;;5.57;78.98
12594;BME280;6362;50.208;9.182;2023-04-08T08:16:16;100468.34;;;5.73;79.65
12594;BME280;6362;50.208;9.182;2023-04-08T08:18:42;100465.31;;;5.92;78.18
12594;BME280;6362;50.208;9.182;2023-04-08T08:21:08;100461.31;;;6.06;76.04
12594;BME280;6362;50.208;9.182;2023-04-08T08:23:33;100475.31;;;6.19;76.01
12594;BME280;6362;50.208;9.182;2023-04-08T08:26:03;100475.53;;;6.30;76.94
12594;BME280;6362;50.208;9.182;2023-04-08T08:28:30;100484.25;;;6.38;76.44
12594;BME280;6362;50.208;9.182;2023-04-08T08:30:56;100472.47;;;6.52;76.46
12594;BME280;6362;50.208;9.182;2023-04-08T08:33:21;100476.88;;;6.56;74.54
12594;BME280;6362;50.208;9.182;2023-04-08T08:35:47;100475.16;;;6.58;74.99
12594;BME280;6362;50.208;9.182;2023-04-08T08:38:12;100474.28;;;6.56;74.81
12594;BME280;6362;50.208;9.182;2023-04-08T08:40:38;100470.75;;;6.51;75.00
12594;BME280;6362;50.208;9.182;2023-04-08T08:43:04;100474.88;;;6.43;75.77
12594;BME280;6362;50.208;9.182;2023-04-08T08:45:29;100476.50;;;6.38;75.50
12594;BME280;6362;50.208;9.182;2023-04-08T08:47:55;100477.47;;;6.43;76.03
12594;BME280;6362;50.208;9.182;2023-04-08T08:50:21;100484.50;;;6.50;76.01
12594;BME280;6362;50.208;9.182;2023-04-08T08:52:51;100487.91;;;6.48;74.63
12594;BME280;6362;50.208;9.182;2023-04-08T08:55:20;100482.78;;;6.51;74.74
12594;BME280;6362;50.208;9.182;2023-04-08T08:57:49;100492.25;;;6.50;76.28
12594;BME280;6362;50.208;9.182;2023-04-08T09:00:15;100495.16;;;6.69;76.28
12594;BME280;6362;50.208;9.182;2023-04-08T09:02:42;100496.00;;;6.68;75.29
12594;BME280;6362;50.208;9.182;2023-04-08T09:05:07;100498.88;;;6.84;75.08
12594;BME280;6362;50.208;9.182;2023-04-08T09:07:38;100491.44;;;7.04;75.54
12594;BME280;6362;50.208;9.182;2023-04-08T09:10:05;100493.63;;;7.36;74.71
12594;BME280;6362;50.208;9.182;2023-04-08T09:12:31;100499.91;;;7.53;72.30
12594;BME280;6362;50.208;9.182;2023-04-08T09:15:04;100495.97;;;7.81;71.03
12594;BME280;6362;50.208;9.182;2023-04-08T09:17:34;100497.09;;;8.00;69.52
12594;BME280;6362;50.208;9.182;2023-04-08T09:20:18;100502.41;;;8.12;70.11
12594;BME280;6362;50.208;9.182;2023-04-08T09:25:26;100507.78;;;8.29;69.74
12594;BME280;6362;50.208;9.182;2023-04-08T09:27:52;100507.19;;;8.53;68.48
12594;BME280;6362;50.208;9.182;2023-04-08T09:30:19;100509.94;;;8.70;68.39
12594;BME280;6362;50.208;9.182;2023-04-08T09:32:52;100511.81;;;8.88;66.86
12594;BME280;6362;50.208;9.182;2023-04-08T09:35:18;100508.63;;;9.21;65.58
12594;BME280;6362;50.208;9.182;2023-04-08T09:37:45;100504.44;;;9.43;66.67
12594;BME280;6362;50.208;9.182;2023-04-08T09:40:11;100511.53;;;9.71;66.03
12594;BME280;6362;50.208;9.182;2023-04-08T09:42:39;100516.69;;;9.64;62.98
12594;BME280;6362;50.208;9.182;2023-04-08T09:45:08;100518.53;;;9.88;63.56
12594;BME280;6362;50.208;9.182;2023-04-08T09:47:41;100512.63;;;10.19;65.04
12594;BME280;6362;50.208;9.182;2023-04-08T09:50:08;100503.19;;;10.43;63.52
12594;BME280;6362;50.208;9.182;2023-04-08T09:52:46;100510.16;;;10.65;63.61
12594;BME280;6362;50.208;9.182;2023-04-08T09:55:21;100507.59;;;10.77;60.58
12594;BME280;6362;50.208;9.182;2023-04-08T09:58:03;100505.84;;;10.87;60.39
12594;BME280;6362;50.208;9.182;2023-04-08T10:00:42;100506.69;;;10.81;59.46
12594;BME280;6362;50.208;9.182;2023-04-08T10:05:49;100509.28;;;10.57;61.25
12594;BME280;6362;50.208;9.182;2023-04-08T10:08:17;100496.28;;;10.63;60.03
12594;BME280;6362;50.208;9.182;2023-04-08T10:10:43;100500.66;;;10.95;61.61
12594;BME280;6362;50.208;9.182;2023-04-08T10:13:08;100497.13;;;11.40;61.26
12594;BME280;6362;50.208;9.182;2023-04-08T10:15:35;100493.56;;;11.70;58.87
12594;BME280;6362;50.208;9.182;2023-04-08T10:22:59;100501.72;;;12.81;55.25
12594;BME280;6362;50.208;9.182;2023-04-08T10:25:32;100494.72;;;12.89;53.72
12594;BME280;6362;50.208;9.182;2023-04-08T10:33:15;100504.00;;;11.73;56.03
12594;BME280;6362;50.208;9.182;2023-04-08T10:35:48;100499.69;;;11.54;56.77
12594;BME280;6362;50.208;9.182;2023-04-08T10:38:14;100499.75;;;11.20;57.62
12594;BME280;6362;50.208;9.182;2023-04-08T10:40:41;100496.31;;;10.97;59.18
12594;BME280;6362;50.208;9.182;2023-04-08T10:43:08;100496.31;;;11.00;59.26
12594;BME280;6362;50.208;9.182;2023-04-08T10:45:35;100491.09;;;10.94;59.43
12594;BME280;6362;50.208;9.182;2023-04-08T10:48:20;100491.97;;;11.17;58.86
12594;BME280;6362;50.208;9.182;2023-04-08T10:50:54;100489.31;;;11.32;61.25
12594;BME280;6362;50.208;9.182;2023-04-08T10:53:28;100482.31;;;11.62;58.58
12594;BME280;6362;50.208;9.182;2023-04-08T10:56:02;100484.03;;;11.74;56.68
12594;BME280;6362;50.208;9.182;2023-04-08T10:58:29;100493.63;;;11.56;57.05
12594;BME280;6362;50.208;9.182;2023-04-08T11:00:54;100492.75;;;11.44;58.51
12594;BME280;6362;50.208;9.182;2023-04-08T11:03:20;100491.91;;;11.37;58.50
12594;BME280;6362;50.208;9.182;2023-04-08T11:05:45;100495.41;;;11.27;58.63
12594;BME280;6362;50.208;9.182;2023-04-08T11:08:11;100488.47;;;11.35;58.41
12594;BME280;6362;50.208;9.182;2023-04-08T11:10:37;100487.56;;;11.42;58.20
12594;BME280;6362;50.208;9.182;2023-04-08T11:13:05;100484.94;;;11.53;57.42
12594;BME280;6362;50.208;9.182;2023-04-08T11:15:32;100488.25;;;12.04;59.88
12594;BME280;6362;50.208;9.182;2023-04-08T11:17:58;100478.19;;;12.82;57.52
12594;BME280;6362;50.208;9.182;2023-04-08T11:20:24;100477.03;;;13.23;53.87
12594;BME280;6362;50.208;9.182;2023-04-08T11:22:50;100476.13;;;13.24;54.32
12594;BME280;6362;50.208;9.182;2023-04-08T11:25:16;100476.81;;;13.44;53.34
12594;BME280;6362;50.208;9.182;2023-04-08T11:27:42;100478.84;;;13.93;52.40
12594;BME280;6362;50.208;9.182;2023-04-08T11:30:09;100475.16;;;14.10;51.15
12594;BME280;6362;50.208;9.182;2023-04-08T11:32:36;100463.44;;;14.37;50.58
12594;BME280;6362;50.208;9.182;2023-04-08T11:35:06;100471.47;;;14.24;52.16
12594;BME280;6362;50.208;9.182;2023-04-08T11:37:41;100481.41;;;13.99;53.19
12594;BME280;6362;50.208;9.182;2023-04-08T11:40:18;100484.53;;;13.55;52.56
12594;BME280;6362;50.208;9.182;2023-04-08T11:42:44;100478.84;;;13.09;50.55
12594;BME280;6362;50.208;9.182;2023-04-08T11:45:13;100477.19;;;13.02;52.34
12594;BME280;6362;50.208;9.182;2023-04-08T11:47:40;100472.13;;;12.83;51.48
12594;BME280;6362;50.208;9.182;2023-04-08T11:50:06;100475.53;;;12.90;52.23
12594;BME280;6362;50.208;9.182;2023-04-08T11:52:46;100478.34;;;12.67;52.68
12594;BME280;6362;50.208;9.182;2023-04-08T11:55:25;100473.34;;;12.33;52.56
12594;BME280;6362;50.208;9.182;2023-04-08T11:57:52;100469.19;;;11.93;53.63
12594;BME280;6362;50.208;9.182;2023-04-08T12:00:19;100467.34;;;12.19;54.03
12594;BME280;6362;50.208;9.182;2023-04-08T12:02:45;100465.50;;;12.32;53.89
12594;BME280;6362;50.208;9.182;2023-04-08T12:05:14;100475.94;;;12.32;53.48
12594;BME280;6362;50.208;9.182;2023-04-08T12:07:40;100480.31;;;12.30;53.69
12594;BME280;6362;50.208;9.182;2023-04-08T12:10:07;100475.03;;;12.37;53.74
12594;BME280;6362;50.208;9.182;2023-04-08T12:12:33;100468.88;;;12.52;53.21
12594;BME280;6362;50.208;9.182;2023-04-08T12:15:00;100481.00;;;12.59;53.79
12594;BME280;6362;50.208;9.182;2023-04-08T12:17:25;100475.91;;;12.36;54.14
12594;BME280;6362;50.208;9.182;2023-04-08T12:19:51;100472.38;;;12.48;53.29
12594;BME280;6362;50.208;9.182;2023-04-08T12:22:16;100486.28;;;12.47;54.61
12594;BME280;6362;50.208;9.182;2023-04-08T12:24:42;100484.72;;;12.15;54.02
12594;BME280;6362;50.208;9.182;2023-04-08T12:27:07;100493.53;;;11.95;55.28
12594;BME280;6362;50.208;9.182;2023-04-08T12:29:33;100497.00;;;11.95;55.55
12594;BME280;6362;50.208;9.182;2023-04-08T12:31:58;100496.13;;;11.98;56.06
12594;BME280;6362;50.208;9.182;2023-04-08T12:34:24;100484.81;;;11.99;56.38
12594;BME280;6362;50.208;9.182;2023-04-08T12:36:49;100484.84;;;11.94;56.84
12594;BME280;6362;50.208;9.182;2023-04-08T12:39:15;100483.97;;;11.94;56.09
12594;BME280;6362;50.208;9.182;2023-04-08T12:41:40;100488.38;;;11.84;56.14
12594;BME280;6362;50.208;9.182;2023-04-08T12:44:06;100483.16;;;11.72;56.05
12594;BME280;6362;50.208;9.182;2023-04-08T12:46:32;100474.50;;;11.68;56.97
12594;BME280;6362;50.208;9.182;2023-04-08T12:48:57;100476.22;;;11.72;56.50
12594;BME280;6362;50.208;9.182;2023-04-08T12:51:23;100479.75;;;11.47;57.36
12594;BME280;6362;50.208;9.182;2023-04-08T12:53:50;100471.97;;;11.39;57.84
12594;BME280;6362;50.208;9.182;2023-04-08T12:56:16;100475.44;;;11.36;57.53
12594;BME280;6362;50.208;9.182;2023-04-08T12:58:41;100473.69;;;11.35;58.35
12594;BME280;6362;50.208;9.182;2023-04-08T13:01:07;100466.75;;;11.31;58.12
12594;BME280;6362;50.208;9.182;2023-04-08T13:03:32;100466.75;;;11.36;58.38
12594;BME280;6362;50.208;9.182;2023-04-08T13:05:59;100469.31;;;11.44;58.15
12594;BME280;6362;50.208;9.182;2023-04-08T13:08:25;100467.56;;;11.58;58.86
12594;BME280;6362;50.208;9.182;2023-04-08T13:10:50;100464.94;;;11.59;58.88
12594;BME280;6362;50.208;9.182;2023-04-08T13:13:15;100464.94;;;11.62;58.72
12594;BME280;6362;50.208;9.182;2023-04-08T13:15:41;100463.16;;;11.80;58.50
12594;BME280;6362;50.208;9.182;2023-04-08T13:18:08;100470.09;;;11.88;58.17
12594;BME280;6362;50.208;9.182;2023-04-08T13:20:33;100472.69;;;11.95;58.57
12594;BME280;6362;50.208;9.182;2023-04-08T13:22:59;100470.06;;;11.98;58.09
12594;BME280;6362;50.208;9.182;2023-04-08T13:25:25;100467.44;;;12.02;58.76
12594;BME280;6362;50.208;9.182;2023-04-08T13:27:50;100468.25;;;12.09;58.27